Kezdőlap
METAR-TAF:

METAR-TAF

Repülőterek :

Pécs, Magyarország

földrajzi szélesség: 46-06N, földrajzi hosszúság: 018-14E, magasság: 201 m

Jelenlegi meteorológiai megfigyelések

A jelentés 4 órával és 59 perccel ezelõtt készült, 16:45 UTC
Északkeleti szél 3 kt
Hőmérséklet 24°C
Páratartalom 61%
Légköri nyomás 1021 hPa
Látótávolság 10 km, vagy több
Szórványos felhőzet 4300 lábon, Cumulonimbus.

METAR: LHPP 261645Z 05003KT 9999 SCT043CB 24/16 Q1021

Idő: 23:44 (21:44 UTC)


TAF: hiányzik

Meteorológiai megfigyelések és előrejelzések több, mint 4000 repülőtéren (METAR és TAF jelentéseket).

A térképen piros és sárga pontok jelzik az elérhető meteorológiai állomásokat.

Mozgassa az egeret a pont fölött, hogy megjelenjen az állomás neve.

Azután kattintson az időjárási megfigyelések és előrejelzések megtekintéséhez.

A térkép megváltoztatása: kattintson a fekete keresztel jelölt zöld gombra ráközelítéshez, a vonallal jelölt zöld gombra távolításhoz, vagy a zöld nyilakra a szomszédos térképek eléréséhez.


METAR-TAF: